Time;durP1;ratioP1;P1;durP2;ratioP2;P2;SDS_P1;SDS_P2;PMS_P1;PMS_P2;Temp;Humidity;BMP_temperature;BMP_pressure;BME280_temperature;BME280_humidity;BME280_pressure;Samples;Min_cycle;Max_cycle;Signal;HPM_P1;HPM_P2
2022/09/19 00:01:23;;;;;;;1.90;0.93;;;;;;;;;;4980723;28;20241;-78
2022/09/19 00:03:58;;;;;;;0.93;0.70;;;;;;;;;;5000333;28;20229;-79
2022/09/19 00:06:27;;;;;;;2.37;0.90;;;;;;;;;;4971479;28;20257;-79
2022/09/19 00:08:52;;;;;;;3.83;0.80;;;;;;;;;;4969801;28;20309;-79
2022/09/19 00:11:22;;;;;;;0.83;0.70;;;;;;;;;;4975009;28;20233;-78
2022/09/19 00:13:51;;;;;;;2.00;0.70;;;;;;;;;;4971953;28;20241;-79
2022/09/19 00:16:28;;;;;;;0.93;0.57;;;;;;;;;;4970267;28;20229;-78
2022/09/19 00:18:57;;;;;;;0.63;0.60;;;;;;;;;;4976300;28;20230;-79
2022/09/19 00:21:32;;;;;;;0.77;0.77;;;;;;;;;;4999848;28;20284;-79
2022/09/19 00:26:45;;;;;;;0.87;0.63;;;;;;;;;;4986882;28;20244;-78
2022/09/19 00:29:15;;;;;;;0.73;0.70;;;;;;;;;;4985276;28;20225;-79
2022/09/19 00:31:44;;;;;;;0.97;0.60;;;;;;;;;;4966571;28;20221;-78
2022/09/19 00:34:13;;;;;;;1.23;0.67;;;;;;;;;;4957665;28;20224;-78
2022/09/19 00:36:39;;;;;;;0.97;0.60;;;;;;;;;;4980388;28;20221;-78
2022/09/19 00:39:06;;;;;;;1.33;0.70;;;;;;;;;;4962310;28;20291;-77
2022/09/19 00:41:31;;;;;;;0.80;0.60;;;;;;;;;;4977809;28;20244;-78
2022/09/19 00:43:59;;;;;;;0.60;0.60;;;;;;;;;;4964078;28;20739;-79
2022/09/19 00:46:28;;;;;;;0.83;0.80;;;;;;;;;;4963695;28;20221;-79
2022/09/19 00:49:13;;;;;;;0.93;0.70;;;;;;;;;;4980179;28;20229;-79
2022/09/19 00:51:43;;;;;;;1.10;0.70;;;;;;;;;;4984345;28;20241;-79
2022/09/19 00:54:14;;;;;;;0.40;0.40;;;;;;;;;;4960806;28;20699;-79
2022/09/19 00:56:45;;;;;;;2.10;0.83;;;;;;;;;;4979234;28;20217;-78
2022/09/19 00:59:16;;;;;;;0.70;0.70;;;;;;;;;;4984110;28;20352;-78
2022/09/19 01:01:41;;;;;;;1.90;0.70;;;;;;;;;;4962876;28;20260;-78
2022/09/19 01:04:20;;;;;;;1.33;0.90;;;;;;;;;;4963419;28;20222;-78
2022/09/19 01:07:13;;;;;;;1.07;0.70;;;;;;;;;;4979540;28;20723;-79
2022/09/19 01:10:09;;;;;;;0.73;0.73;;;;;;;;;;4969078;28;20248;-79
2022/09/19 01:12:54;;;;;;;1.33;0.70;;;;;;;;;;4970069;28;20723;-79
2022/09/19 01:15:54;;;;;;;1.13;0.87;;;;;;;;;;4968632;28;20324;-79
2022/09/19 01:18:23;;;;;;;1.37;0.90;;;;;;;;;;4995168;28;20253;-79
2022/09/19 01:20:52;;;;;;;2.53;0.80;;;;;;;;;;4997562;28;20229;-79
2022/09/19 01:23:58;;;;;;;0.80;0.80;;;;;;;;;;4998337;28;20221;-77
2022/09/19 01:26:49;;;;;;;0.90;0.90;;;;;;;;;;4998691;28;20212;-79
2022/09/19 01:29:23;;;;;;;1.23;0.83;;;;;;;;;;4979409;28;20268;-78
2022/09/19 01:31:53;;;;;;;2.07;1.10;;;;;;;;;;4976486;28;20233;-78
2022/09/19 01:34:20;;;;;;;1.80;0.90;;;;;;;;;;4977731;28;20225;-78
2022/09/19 01:36:52;;;;;;;2.87;1.03;;;;;;;;;;4980609;28;20227;-79
2022/09/19 01:39:23;;;;;;;2.00;0.90;;;;;;;;;;4981725;28;20318;-79
2022/09/19 01:41:53;;;;;;;2.23;1.00;;;;;;;;;;4975733;28;20762;-78
2022/09/19 01:44:23;;;;;;;2.47;1.03;;;;;;;;;;4965651;28;20236;-78
2022/09/19 01:47:08;;;;;;;3.27;1.10;;;;;;;;;;4978452;28;20225;-79
2022/09/19 01:49:40;;;;;;;0.97;0.97;;;;;;;;;;4972022;28;20260;-79
2022/09/19 01:52:45;;;;;;;4.80;0.97;;;;;;;;;;4976735;28;20363;-79
2022/09/19 01:55:25;;;;;;;1.27;0.93;;;;;;;;;;4993351;28;20440;-79
2022/09/19 01:58:40;;;;;;;1.40;1.10;;;;;;;;;;4978540;28;20606;-79
2022/09/19 02:01:41;;;;;;;1.10;1.00;;;;;;;;;;4972487;28;20731;-78
2022/09/19 02:04:21;;;;;;;1.57;1.20;;;;;;;;;;4960377;28;20222;-79
2022/09/19 02:06:52;;;;;;;1.47;1.20;;;;;;;;;;4981817;28;20727;-79
2022/09/19 02:09:36;;;;;;;1.33;1.23;;;;;;;;;;4978371;28;20313;-78
2022/09/19 02:12:02;;;;;;;3.63;1.10;;;;;;;;;;4960995;28;20284;-79
2022/09/19 02:14:31;;;;;;;1.33;1.20;;;;;;;;;;4975413;28;20324;-79
2022/09/19 02:17:11;;;;;;;2.90;1.50;;;;;;;;;;4965051;28;20221;-78
2022/09/19 02:19:49;;;;;;;1.50;1.40;;;;;;;;;;4964207;28;20232;-78
2022/09/19 02:22:20;;;;;;;1.80;1.47;;;;;;;;;;4976569;28;20224;-78
2022/09/19 02:24:45;;;;;;;1.33;1.23;;;;;;;;;;4977330;28;20225;-79
2022/09/19 02:27:16;;;;;;;1.70;1.43;;;;;;;;;;4964200;28;20324;-79
2022/09/19 02:29:48;;;;;;;2.70;1.30;;;;;;;;;;4967327;28;20595;-78
2022/09/19 02:32:19;;;;;;;1.67;1.37;;;;;;;;;;4986884;28;20233;-78
2022/09/19 02:34:50;;;;;;;1.73;1.10;;;;;;;;;;4975949;28;20232;-78
2022/09/19 02:37:30;;;;;;;1.47;1.27;;;;;;;;;;4955702;28;20236;-78
2022/09/19 02:40:44;;;;;;;2.60;1.30;;;;;;;;;;4972819;28;20225;-78
2022/09/19 02:43:31;;;;;;;5.23;1.37;;;;;;;;;;4923884;29;20307;-77
2022/09/19 02:46:01;;;;;;;2.53;1.57;;;;;;;;;;4991637;28;20221;-77
2022/09/19 02:48:34;;;;;;;2.33;1.13;;;;;;;;;;4969774;28;20229;-79
2022/09/19 02:51:02;;;;;;;1.70;1.33;;;;;;;;;;4988834;28;20233;-77
2022/09/19 02:53:40;;;;;;;1.60;1.50;;;;;;;;;;4985517;28;20849;-77
2022/09/19 02:56:13;;;;;;;1.43;1.13;;;;;;;;;;5002340;28;20711;-77
2022/09/19 02:58:49;;;;;;;2.53;1.43;;;;;;;;;;4972823;28;20221;-77
2022/09/19 03:01:19;;;;;;;1.20;1.10;;;;;;;;;;4972867;28;20228;-78
2022/09/19 03:06:59;;;;;;;1.77;1.17;;;;;;;;;;4990544;28;20221;-78
2022/09/19 03:09:28;;;;;;;1.40;1.30;;;;;;;;;;4989635;28;20262;-77
2022/09/19 03:12:03;;;;;;;1.90;1.40;;;;;;;;;;4972783;28;20259;-78
2022/09/19 03:14:32;;;;;;;2.60;1.53;;;;;;;;;;4979178;28;20233;-78
2022/09/19 03:17:03;;;;;;;1.60;1.50;;;;;;;;;;4997902;28;20297;-77
2022/09/19 03:19:30;;;;;;;1.80;1.50;;;;;;;;;;4977681;28;20221;-78
2022/09/19 03:21:56;;;;;;;2.67;1.70;;;;;;;;;;4975763;28;20230;-77
2022/09/19 03:24:22;;;;;;;5.47;1.23;;;;;;;;;;4975804;28;20229;-78
2022/09/19 03:26:48;;;;;;;2.33;1.40;;;;;;;;;;4978086;28;20225;-79
2022/09/19 03:29:15;;;;;;;1.70;1.60;;;;;;;;;;4976609;28;20229;-78
2022/09/19 03:31:50;;;;;;;3.93;1.77;;;;;;;;;;4960823;28;20256;-79
2022/09/19 03:34:17;;;;;;;1.70;1.57;;;;;;;;;;4976989;28;20244;-78
2022/09/19 03:36:45;;;;;;;2.07;1.60;;;;;;;;;;4976339;28;20225;-79
2022/09/19 03:39:17;;;;;;;1.40;1.30;;;;;;;;;;4973388;28;20225;-77
2022/09/19 03:41:46;;;;;;;5.90;1.80;;;;;;;;;;4991361;28;20237;-77
2022/09/19 03:44:12;;;;;;;1.83;1.70;;;;;;;;;;5011893;28;20220;-78
2022/09/19 03:46:38;;;;;;;2.67;1.90;;;;;;;;;;4989589;28;20221;-77
2022/09/19 03:49:07;;;;;;;2.73;1.50;;;;;;;;;;4990990;28;20249;-78
2022/09/19 03:51:35;;;;;;;2.73;1.70;;;;;;;;;;4972402;28;20285;-78
2022/09/19 03:54:03;;;;;;;2.57;1.83;;;;;;;;;;4974875;28;20335;-80
2022/09/19 03:56:35;;;;;;;5.37;1.77;;;;;;;;;;4989420;28;20285;-77
2022/09/19 03:59:05;;;;;;;1.60;1.50;;;;;;;;;;4992634;28;20237;-78
2022/09/19 04:01:35;;;;;;;4.00;1.80;;;;;;;;;;4978996;28;20288;-79
2022/09/19 04:04:00;;;;;;;3.57;1.70;;;;;;;;;;4977804;28;20221;-79
2022/09/19 04:06:30;;;;;;;1.70;1.60;;;;;;;;;;4977983;28;20232;-78
2022/09/19 04:09:00;;;;;;;2.70;1.70;;;;;;;;;;4997494;28;20249;-79
2022/09/19 04:11:29;;;;;;;3.30;1.60;;;;;;;;;;4992496;28;20245;-78
2022/09/19 04:13:57;;;;;;;5.53;2.00;;;;;;;;;;4994105;28;20233;-79
2022/09/19 04:16:24;;;;;;;3.63;1.73;;;;;;;;;;4960618;28;20221;-79
2022/09/19 04:18:52;;;;;;;2.03;1.50;;;;;;;;;;4994711;28;20233;-79
2022/09/19 04:21:50;;;;;;;2.93;1.40;;;;;;;;;;4988815;28;20236;-79
2022/09/19 04:24:30;;;;;;;4.03;1.60;;;;;;;;;;4994931;28;20222;-79
2022/09/19 04:27:13;;;;;;;4.03;1.37;;;;;;;;;;4999786;28;20698;-79
2022/09/19 04:29:41;;;;;;;4.30;1.43;;;;;;;;;;4998843;28;20217;-79
2022/09/19 04:32:09;;;;;;;4.60;1.30;;;;;;;;;;4994096;28;20225;-79
2022/09/19 04:34:42;;;;;;;3.63;1.50;;;;;;;;;;4996342;28;20292;-79
2022/09/19 04:37:09;;;;;;;6.97;1.63;;;;;;;;;;4993722;28;20221;-79
2022/09/19 04:39:37;;;;;;;4.07;1.70;;;;;;;;;;4978589;28;20286;-79
2022/09/19 04:42:05;;;;;;;3.07;1.40;;;;;;;;;;5012077;28;20316;-80
2022/09/19 04:44:30;;;;;;;4.10;1.70;;;;;;;;;;4977247;28;20357;-78
2022/09/19 04:47:06;;;;;;;3.97;1.40;;;;;;;;;;4979584;28;20312;-79
2022/09/19 04:49:39;;;;;;;3.63;1.77;;;;;;;;;;4993334;28;20290;-79
2022/09/19 04:52:06;;;;;;;4.80;1.83;;;;;;;;;;4977608;28;20218;-76
2022/09/19 04:54:36;;;;;;;5.17;1.50;;;;;;;;;;4981773;28;20222;-79
2022/09/19 04:57:12;;;;;;;5.03;2.13;;;;;;;;;;4976237;28;20228;-78
2022/09/19 04:59:40;;;;;;;4.47;1.60;;;;;;;;;;4961856;28;20216;-78
2022/09/19 05:02:12;;;;;;;3.93;1.97;;;;;;;;;;4993163;28;20217;-80
2022/09/19 05:04:41;;;;;;;6.27;1.67;;;;;;;;;;4986247;28;20256;-76
2022/09/19 05:07:08;;;;;;;4.10;1.73;;;;;;;;;;4991750;28;20221;-79
2022/09/19 05:09:42;;;;;;;4.43;1.63;;;;;;;;;;4990707;28;20218;-79
2022/09/19 05:12:09;;;;;;;2.50;1.50;;;;;;;;;;4990192;28;20222;-78
2022/09/19 05:14:51;;;;;;;4.93;2.07;;;;;;;;;;4988082;28;20308;-79
2022/09/19 05:17:18;;;;;;;3.67;1.60;;;;;;;;;;4954485;28;20287;-78
2022/09/19 05:19:44;;;;;;;8.67;1.80;;;;;;;;;;4990244;28;20899;-78
2022/09/19 05:22:12;;;;;;;4.83;2.03;;;;;;;;;;4956530;28;20727;-78
2022/09/19 05:24:38;;;;;;;2.90;1.77;;;;;;;;;;4991739;28;20640;-79
2022/09/19 05:27:03;;;;;;;4.70;1.90;;;;;;;;;;4974934;28;20225;-80
2022/09/19 05:29:36;;;;;;;4.83;2.00;;;;;;;;;;4965726;28;20285;-80
2022/09/19 05:32:05;;;;;;;7.53;1.97;;;;;;;;;;4980636;28;20221;-80
2022/09/19 05:35:00;;;;;;;5.23;2.20;;;;;;;;;;4962627;28;20300;-80
2022/09/19 05:37:49;;;;;;;8.27;1.90;;;;;;;;;;4963005;28;20510;-80
2022/09/19 05:40:30;;;;;;;6.57;2.00;;;;;;;;;;4983026;28;20691;-79
2022/09/19 05:43:14;;;;;;;5.17;2.20;;;;;;;;;;4965817;28;20263;-80
2022/09/19 05:45:42;;;;;;;4.07;2.17;;;;;;;;;;4981338;28;20218;-80
2022/09/19 05:48:11;;;;;;;5.83;2.13;;;;;;;;;;4978007;28;20218;-79
2022/09/19 05:50:38;;;;;;;4.67;2.80;;;;;;;;;;4965021;28;20225;-80
2022/09/19 05:55:49;;;;;;;4.77;3.07;;;;;;;;;;4980322;28;20225;-79
2022/09/19 05:58:40;;;;;;;7.30;3.50;;;;;;;;;;4984558;28;20579;-80
2022/09/19 06:01:12;;;;;;;5.13;3.30;;;;;;;;;;4964000;28;20225;-79
2022/09/19 06:03:38;;;;;;;6.47;3.30;;;;;;;;;;4968726;28;20224;-80
2022/09/19 06:06:11;;;;;;;5.23;3.57;;;;;;;;;;4967800;28;20232;-78
2022/09/19 06:08:38;;;;;;;4.57;3.17;;;;;;;;;;4982531;28;20654;-80
2022/09/19 06:11:04;;;;;;;9.13;4.03;;;;;;;;;;4975520;28;20233;-80
2022/09/19 06:14:13;;;;;;;6.30;3.10;;;;;;;;;;4946967;28;20272;-79
2022/09/19 06:16:17;;;;;;;4.03;3.10;;;;;;;;;;4975329;28;20226;-80
2022/09/19 06:19:20;;;;;;;6.03;2.93;;;;;;;;;;4983932;28;20214;-79
2022/09/19 06:21:57;;;;;;;6.07;3.13;;;;;;;;;;4957814;28;20827;-78
2022/09/19 06:24:24;;;;;;;5.23;2.80;;;;;;;;;;4968343;28;20277;-79
2022/09/19 06:26:53;;;;;;;6.30;2.90;;;;;;;;;;4968487;28;20689;-80
2022/09/19 06:29:20;;;;;;;8.60;3.20;;;;;;;;;;4963791;28;20217;-78
2022/09/19 06:32:09;;;;;;;5.23;2.97;;;;;;;;;;4967478;28;20257;-79
2022/09/19 06:34:39;;;;;;;4.33;2.50;;;;;;;;;;4984753;28;20225;-80
2022/09/19 06:37:08;;;;;;;7.83;3.10;;;;;;;;;;4964059;28;20256;-80
2022/09/19 06:39:35;;;;;;;6.43;2.60;;;;;;;;;;4963713;28;20694;-79
2022/09/19 06:42:40;;;;;;;5.17;2.43;;;;;;;;;;4982969;28;20229;-79
2022/09/19 06:45:25;;;;;;;3.80;2.37;;;;;;;;;;4984279;28;20281;-80
2022/09/19 06:48:20;;;;;;;6.23;2.40;;;;;;;;;;4965680;28;20658;-78
2022/09/19 06:51:09;;;;;;;5.97;2.03;;;;;;;;;;4980698;28;20229;-79
2022/09/19 06:53:35;;;;;;;4.70;2.27;;;;;;;;;;4953058;28;20785;-80
2022/09/19 06:56:04;;;;;;;6.43;2.30;;;;;;;;;;4968316;28;20225;-80
2022/09/19 06:58:29;;;;;;;5.53;2.00;;;;;;;;;;4982114;28;20275;-80
2022/09/19 07:00:57;;;;;;;4.93;1.90;;;;;;;;;;4968770;28;20627;-80
2022/09/19 07:03:28;;;;;;;6.73;1.93;;;;;;;;;;4968941;28;20221;-80
2022/09/19 07:05:59;;;;;;;6.57;2.00;;;;;;;;;;4985018;28;20599;-79
2022/09/19 07:08:34;;;;;;;5.77;2.10;;;;;;;;;;4967200;28;20217;-78
2022/09/19 07:11:04;;;;;;;6.07;2.00;;;;;;;;;;4985156;28;20229;-81
2022/09/19 07:13:31;;;;;;;11.90;2.20;;;;;;;;;;4985518;28;20237;-80
2022/09/19 07:16:03;;;;;;;5.80;1.90;;;;;;;;;;4966684;28;20666;-78
2022/09/19 07:18:36;;;;;;;8.07;2.13;;;;;;;;;;4982497;28;20222;-80
2022/09/19 07:21:20;;;;;;;6.77;2.00;;;;;;;;;;4984731;28;20276;-80
2022/09/19 07:23:49;;;;;;;5.93;2.00;;;;;;;;;;4986136;28;20233;-79
2022/09/19 07:26:40;;;;;;;5.33;1.80;;;;;;;;;;4990075;28;20713;-79
2022/09/19 07:29:06;;;;;;;3.93;1.97;;;;;;;;;;4987981;28;20248;-81
2022/09/19 07:31:34;;;;;;;5.90;2.17;;;;;;;;;;4988481;28;20225;-80
2022/09/19 07:34:00;;;;;;;5.73;1.87;;;;;;;;;;4987797;28;20237;-79
2022/09/19 07:36:30;;;;;;;6.10;2.10;;;;;;;;;;4970899;28;20225;-81
2022/09/19 07:38:56;;;;;;;7.67;2.27;;;;;;;;;;4983180;28;20323;-81
2022/09/19 07:41:50;;;;;;;3.60;1.60;;;;;;;;;;4981389;28;20225;-80
2022/09/19 07:44:35;;;;;;;6.83;2.17;;;;;;;;;;4966753;28;20222;-81
2022/09/19 07:47:28;;;;;;;5.60;1.60;;;;;;;;;;4985900;28;20230;-78
2022/09/19 07:50:04;;;;;;;6.57;1.90;;;;;;;;;;4987441;28;20225;-79
2022/09/19 07:52:39;;;;;;;9.40;1.90;;;;;;;;;;4987707;28;20239;-79
2022/09/19 07:55:10;;;;;;;6.07;1.70;;;;;;;;;;4962432;28;21023;-79
2022/09/19 07:57:36;;;;;;;5.17;2.07;;;;;;;;;;4950862;28;20732;-79
2022/09/19 08:00:06;;;;;;;6.60;2.10;;;;;;;;;;4983572;28;20221;-77
2022/09/19 08:02:38;;;;;;;8.20;2.07;;;;;;;;;;4983730;28;20220;-78
2022/09/19 08:05:06;;;;;;;6.37;1.87;;;;;;;;;;4965623;28;20209;-79
2022/09/19 08:07:33;;;;;;;5.13;1.90;;;;;;;;;;4984141;28;20209;-78
2022/09/19 08:10:02;;;;;;;7.80;2.40;;;;;;;;;;4965618;28;20214;-78
2022/09/19 08:12:31;;;;;;;5.80;1.97;;;;;;;;;;4961311;28;20236;-80
2022/09/19 08:15:15;;;;;;;7.60;2.23;;;;;;;;;;4965367;28;20600;-79
2022/09/19 08:17:54;;;;;;;6.37;2.00;;;;;;;;;;4964969;28;20236;-80
2022/09/19 08:20:20;;;;;;;9.57;2.47;;;;;;;;;;4979519;28;20229;-78
2022/09/19 08:22:49;;;;;;;5.87;2.13;;;;;;;;;;4980900;28;20608;-79
2022/09/19 08:25:17;;;;;;;6.90;2.27;;;;;;;;;;4965027;28;20205;-79
2022/09/19 08:27:44;;;;;;;5.77;2.10;;;;;;;;;;4979948;28;20214;-78
2022/09/19 08:30:11;;;;;;;15.77;2.60;;;;;;;;;;4967542;28;20225;-80
2022/09/19 08:32:38;;;;;;;8.18;2.28;;;;;;;;;;4961773;28;20236;-81
2022/09/19 08:35:07;;;;;;;6.53;2.33;;;;;;;;;;4963334;28;20265;-81
2022/09/19 08:37:35;;;;;;;8.05;2.40;;;;;;;;;;4978536;28;20235;-81
2022/09/19 08:40:15;;;;;;;10.50;2.50;;;;;;;;;;4966582;28;20249;-81
2022/09/19 08:43:10;;;;;;;8.38;2.40;;;;;;;;;;4990551;28;20221;-80
2022/09/19 08:46:05;;;;;;;7.27;2.30;;;;;;;;;;4980284;28;20680;-81
2022/09/19 08:48:53;;;;;;;9.53;2.83;;;;;;;;;;4985053;28;20217;-80
2022/09/19 08:51:29;;;;;;;5.30;1.67;;;;;;;;;;4988848;28;20225;-81
2022/09/19 08:54:11;;;;;;;8.17;2.80;;;;;;;;;;4973090;28;20236;-80
2022/09/19 08:56:37;;;;;;;7.13;2.00;;;;;;;;;;4983543;28;20231;-81
2022/09/19 08:59:04;;;;;;;7.43;2.23;;;;;;;;;;4980245;28;20253;-81
2022/09/19 09:01:59;;;;;;;8.07;2.50;;;;;;;;;;4968287;28;20230;-81
2022/09/19 09:04:32;;;;;;;6.57;2.50;;;;;;;;;;4987219;28;20605;-81
2022/09/19 09:08:03;;;;;;;7.10;2.80;;;;;;;;;;4980553;28;20229;-81
2022/09/19 09:11:09;;;;;;;8.15;2.33;;;;;;;;;;4923124;28;20239;-79
2022/09/19 09:14:05;;;;;;;11.40;2.67;;;;;;;;;;4949581;28;20757;-79
2022/09/19 09:16:33;;;;;;;6.47;2.33;;;;;;;;;;4982150;28;20229;-80
2022/09/19 09:19:17;;;;;;;14.23;3.00;;;;;;;;;;4978899;28;20233;-79
2022/09/19 09:22:03;;;;;;;9.10;2.55;;;;;;;;;;4978698;28;20703;-79
2022/09/19 09:24:39;;;;;;;10.15;2.53;;;;;;;;;;4979298;28;20252;-79
2022/09/19 09:27:33;;;;;;;6.18;2.30;;;;;;;;;;4966165;28;20291;-80
2022/09/19 09:30:12;;;;;;;9.02;2.60;;;;;;;;;;4963023;28;20237;-79
2022/09/19 09:32:45;;;;;;;8.55;2.17;;;;;;;;;;4964716;28;20246;-79
2022/09/19 09:35:47;;;;;;;7.35;2.40;;;;;;;;;;4965281;28;20254;-79
2022/09/19 09:38:30;;;;;;;9.50;2.50;;;;;;;;;;4969050;28;20280;-78
2022/09/19 09:44:20;;;;;;;7.07;2.15;;;;;;;;;;4965447;28;20695;-81
2022/09/19 09:47:13;;;;;;;9.68;2.35;;;;;;;;;;4967013;28;20221;-80
2022/09/19 09:49:42;;;;;;;11.27;2.78;;;;;;;;;;4970396;28;20229;-79
2022/09/19 09:52:42;;;;;;;7.72;2.70;;;;;;;;;;4950018;28;20222;-78
2022/09/19 09:58:46;;;;;;;8.13;2.38;;;;;;;;;;4947420;28;20221;-79
2022/09/19 10:04:35;;;;;;;7.22;2.53;;;;;;;;;;4967187;28;20345;-79
2022/09/19 10:07:25;;;;;;;9.50;2.95;;;;;;;;;;4960741;28;20209;-79
2022/09/19 10:09:57;;;;;;;10.18;2.80;;;;;;;;;;4979688;28;20190;-81
2022/09/19 10:12:32;;;;;;;10.25;2.70;;;;;;;;;;4989101;28;20196;-80
2022/09/19 10:15:00;;;;;;;6.57;2.58;;;;;;;;;;4956738;28;20209;-78
2022/09/19 10:17:42;;;;;;;8.88;2.58;;;;;;;;;;4973385;28;20189;-79
2022/09/19 10:20:22;;;;;;;8.35;2.10;;;;;;;;;;4971825;28;20205;-82
2022/09/19 10:22:49;;;;;;;7.07;2.20;;;;;;;;;;4965007;28;20703;-79
2022/09/19 10:25:18;;;;;;;7.25;2.25;;;;;;;;;;4966867;28;20221;-81
2022/09/19 10:27:49;;;;;;;5.97;2.17;;;;;;;;;;4983991;28;20253;-78
2022/09/19 10:30:33;;;;;;;7.15;2.10;;;;;;;;;;4986512;28;20213;-79
2022/09/19 10:33:02;;;;;;;6.43;2.10;;;;;;;;;;4969303;28;20623;-79
2022/09/19 10:35:36;;;;;;;8.23;2.45;;;;;;;;;;4976667;28;20181;-78
2022/09/19 10:38:13;;;;;;;4.53;1.23;;;;;;;;;;4968499;28;20571;-78
2022/09/19 10:40:59;;;;;;;6.15;1.80;;;;;;;;;;4963115;28;20233;-81
2022/09/19 10:43:57;;;;;;;5.13;1.50;;;;;;;;;;4971219;28;20206;-75
2022/09/19 10:46:36;;;;;;;3.70;1.80;;;;;;;;;;4954711;28;20221;-78
2022/09/19 10:49:25;;;;;;;3.33;1.00;;;;;;;;;;4963821;28;20247;-77
2022/09/19 10:51:55;;;;;;;2.57;0.93;;;;;;;;;;4975366;28;20734;-77
2022/09/19 10:54:40;;;;;;;4.80;1.20;;;;;;;;;;4958282;28;20250;-77
2022/09/19 10:57:40;;;;;;;3.73;1.90;;;;;;;;;;4971959;28;20308;-77
2022/09/19 11:00:47;;;;;;;5.10;1.20;;;;;;;;;;4968312;28;20229;-76
2022/09/19 11:03:30;;;;;;;6.50;1.50;;;;;;;;;;4975261;28;20225;-77
2022/09/19 11:06:13;;;;;;;7.73;1.37;;;;;;;;;;4974569;28;20782;-78
2022/09/19 11:08:51;;;;;;;2.97;0.97;;;;;;;;;;4972280;28;20229;-78
2022/09/19 11:11:36;;;;;;;3.83;1.10;;;;;;;;;;4968895;28;20253;-78
2022/09/19 11:14:06;;;;;;;5.77;1.30;;;;;;;;;;4961853;28;20241;-78
2022/09/19 11:16:49;;;;;;;1.80;0.90;;;;;;;;;;4978993;28;20233;-79
2022/09/19 11:19:31;;;;;;;2.73;0.87;;;;;;;;;;4981162;28;20220;-78
2022/09/19 11:22:25;;;;;;;2.50;1.10;;;;;;;;;;4967617;28;20229;-79
2022/09/19 11:25:15;;;;;;;2.53;0.93;;;;;;;;;;4946813;28;20261;-79
2022/09/19 11:27:41;;;;;;;2.47;0.70;;;;;;;;;;4982216;28;20236;-79
2022/09/19 11:30:14;;;;;;;2.50;0.70;;;;;;;;;;4965572;28;20234;-80
2022/09/19 11:32:56;;;;;;;2.47;1.20;;;;;;;;;;4985461;28;20226;-79
2022/09/19 11:35:40;;;;;;;5.50;1.60;;;;;;;;;;4989201;28;20217;-79
2022/09/19 11:38:32;;;;;;;6.30;1.40;;;;;;;;;;4987798;28;20225;-79
2022/09/19 11:41:42;;;;;;;2.77;1.20;;;;;;;;;;4986884;28;20260;-80
2022/09/19 11:44:48;;;;;;;2.20;0.93;;;;;;;;;;4982070;28;20303;-79
2022/09/19 11:47:32;;;;;;;2.87;0.80;;;;;;;;;;4985109;28;20217;-76
2022/09/19 11:50:24;;;;;;;3.60;1.23;;;;;;;;;;4977208;28;20236;-78
2022/09/19 11:53:05;;;;;;;2.30;1.17;;;;;;;;;;4950302;28;20814;-78
2022/09/19 11:55:56;;;;;;;3.17;0.80;;;;;;;;;;4991523;28;20226;-77
2022/09/19 11:58:51;;;;;;;3.30;0.80;;;;;;;;;;4975791;28;20324;-78
2022/09/19 12:01:41;;;;;;;5.10;1.03;;;;;;;;;;4992648;28;20312;-78
2022/09/19 12:04:42;;;;;;;1.80;0.80;;;;;;;;;;4975544;28;20268;-75
2022/09/19 12:07:31;;;;;;;2.47;1.00;;;;;;;;;;4972217;28;20225;-76
2022/09/19 12:10:18;;;;;;;2.37;0.80;;;;;;;;;;4994278;28;20225;-77
2022/09/19 12:12:49;;;;;;;3.70;0.90;;;;;;;;;;4976797;28;20723;-77
2022/09/19 12:15:40;;;;;;;3.83;1.30;;;;;;;;;;4983345;28;20221;-75
2022/09/19 12:18:10;;;;;;;4.03;1.47;;;;;;;;;;4978591;28;20636;-77
2022/09/19 12:20:46;;;;;;;3.47;1.50;;;;;;;;;;4962612;28;20225;-77
2022/09/19 12:26:24;;;;;;;1.73;1.33;;;;;;;;;;4979069;28;20240;-77
2022/09/19 12:28:59;;;;;;;6.80;2.00;;;;;;;;;;4963468;28;20280;-76
2022/09/19 12:31:32;;;;;;;3.40;1.20;;;;;;;;;;4959111;28;20220;-78
2022/09/19 12:34:32;;;;;;;6.00;1.43;;;;;;;;;;4976284;28;20230;-77
2022/09/19 12:37:15;;;;;;;3.27;1.20;;;;;;;;;;4960985;28;20263;-79
2022/09/19 12:39:54;;;;;;;4.57;1.50;;;;;;;;;;4961965;28;20237;-78
2022/09/19 12:42:31;;;;;;;4.17;1.60;;;;;;;;;;4976724;28;20253;-76
2022/09/19 12:45:04;;;;;;;3.60;1.60;;;;;;;;;;4965857;28;20228;-76
2022/09/19 12:48:30;;;;;;;3.90;1.17;;;;;;;;;;4977998;28;20703;-77
2022/09/19 12:51:22;;;;;;;2.40;1.30;;;;;;;;;;4931103;29;20239;-76
2022/09/19 12:53:53;;;;;;;3.03;1.53;;;;;;;;;;4932071;29;20269;-76
2022/09/19 12:56:32;;;;;;;3.20;1.00;;;;;;;;;;4968593;28;20226;-77
2022/09/19 12:59:05;;;;;;;2.20;1.17;;;;;;;;;;4957745;28;20299;-77
2022/09/19 13:02:02;;;;;;;3.60;1.30;;;;;;;;;;4962326;28;20225;-77
2022/09/19 13:04:47;;;;;;;4.60;1.40;;;;;;;;;;4971494;28;20695;-79
2022/09/19 13:08:08;;;;;;;4.03;1.53;;;;;;;;;;4979913;28;20244;-77
2022/09/19 13:10:40;;;;;;;3.13;1.20;;;;;;;;;;4939754;29;20734;-76
2022/09/19 13:13:19;;;;;;;4.47;1.33;;;;;;;;;;4969672;28;20228;-77
2022/09/19 13:16:04;;;;;;;4.77;1.60;;;;;;;;;;4997686;28;20225;-78
2022/09/19 13:24:05;;;;;;;9.23;1.67;;;;;;;;;;4991203;28;20221;-76
2022/09/19 13:26:36;;;;;;;5.00;1.60;;;;;;;;;;4960464;28;20793;-78
2022/09/19 13:29:26;;;;;;;5.50;1.50;;;;;;;;;;4961542;28;20299;-80
2022/09/19 13:31:55;;;;;;;3.77;1.57;;;;;;;;;;4990752;28;20245;-76
2022/09/19 13:34:39;;;;;;;5.43;1.37;;;;;;;;;;4989956;28;20312;-77
2022/09/19 13:37:26;;;;;;;3.87;1.80;;;;;;;;;;4989739;28;20232;-78
2022/09/19 13:40:15;;;;;;;4.20;1.67;;;;;;;;;;4994665;28;20221;-78
2022/09/19 13:43:13;;;;;;;5.37;1.90;;;;;;;;;;4955255;28;20221;-78
2022/09/19 13:45:59;;;;;;;3.40;1.50;;;;;;;;;;4995508;28;20223;-77
2022/09/19 13:48:58;;;;;;;6.40;2.50;;;;;;;;;;4975448;28;20602;-77
2022/09/19 13:51:41;;;;;;;6.47;1.60;;;;;;;;;;4965026;28;20738;-78
2022/09/19 13:54:20;;;;;;;4.07;1.37;;;;;;;;;;4999794;28;20249;-77
2022/09/19 13:57:02;;;;;;;2.40;1.23;;;;;;;;;;4993386;28;20229;-78
2022/09/19 13:59:35;;;;;;;5.40;1.63;;;;;;;;;;4995119;28;20221;-77
2022/09/19 14:02:15;;;;;;;6.23;1.57;;;;;;;;;;4963128;28;20727;-78
2022/09/19 14:05:01;;;;;;;5.10;1.27;;;;;;;;;;4978753;28;20610;-77
2022/09/19 14:07:46;;;;;;;4.60;1.40;;;;;;;;;;4963948;28;20221;-78
2022/09/19 14:10:18;;;;;;;5.57;1.20;;;;;;;;;;4991788;28;20221;-77
2022/09/19 14:12:46;;;;;;;5.83;1.93;;;;;;;;;;4975579;28;20226;-76
2022/09/19 14:15:41;;;;;;;5.60;1.52;;;;;;;;;;4977617;28;20233;-78
2022/09/19 14:18:12;;;;;;;5.57;1.48;;;;;;;;;;4977972;28;20464;-78
2022/09/19 14:20:54;;;;;;;5.63;1.60;;;;;;;;;;4993927;28;20310;-77
2022/09/19 14:23:28;;;;;;;2.70;1.65;;;;;;;;;;4990970;28;20231;-76
2022/09/19 14:26:19;;;;;;;3.97;1.40;;;;;;;;;;4981715;28;20695;-78
2022/09/19 14:29:07;;;;;;;5.60;1.42;;;;;;;;;;4980379;28;20331;-81
2022/09/19 14:31:44;;;;;;;5.88;1.52;;;;;;;;;;4978708;28;20282;-80
2022/09/19 14:34:31;;;;;;;5.95;1.80;;;;;;;;;;4994785;28;20236;-80
2022/09/19 14:37:22;;;;;;;6.47;1.88;;;;;;;;;;4997115;28;20260;-79
2022/09/19 14:40:13;;;;;;;8.33;2.10;;;;;;;;;;4994650;28;20248;-79
2022/09/19 14:42:57;;;;;;;8.43;2.17;;;;;;;;;;4981257;28;20244;-78
2022/09/19 14:45:41;;;;;;;7.50;1.77;;;;;;;;;;4982855;28;20841;-79
2022/09/19 14:48:28;;;;;;;4.72;1.70;;;;;;;;;;4979842;28;20283;-79
2022/09/19 14:51:01;;;;;;;4.10;2.10;;;;;;;;;;4998130;28;20305;-80
2022/09/19 14:53:32;;;;;;;5.17;1.70;;;;;;;;;;4962384;28;20291;-82
2022/09/19 14:56:04;;;;;;;5.10;1.80;;;;;;;;;;4980718;28;20231;-80
2022/09/19 14:58:31;;;;;;;6.03;1.40;;;;;;;;;;4981514;28;20245;-79
2022/09/19 15:01:25;;;;;;;3.77;1.43;;;;;;;;;;4971295;28;20233;-80
2022/09/19 15:04:00;;;;;;;5.65;1.50;;;;;;;;;;4999229;28;20265;-81
2022/09/19 15:06:31;;;;;;;5.73;1.60;;;;;;;;;;4980860;28;20233;-81
2022/09/19 15:08:56;;;;;;;4.90;2.07;;;;;;;;;;4991245;28;20221;-80
2022/09/19 15:11:34;;;;;;;6.50;1.50;;;;;;;;;;4996039;28;20221;-79
2022/09/19 15:14:05;;;;;;;8.73;2.10;;;;;;;;;;4991810;28;20229;-79
2022/09/19 15:16:38;;;;;;;7.30;2.27;;;;;;;;;;4964021;28;20228;-79
2022/09/19 15:19:08;;;;;;;4.93;1.70;;;;;;;;;;4980816;28;20272;-80
2022/09/19 15:21:34;;;;;;;5.07;2.00;;;;;;;;;;4967219;28;20228;-80
2022/09/19 15:24:01;;;;;;;4.67;1.80;;;;;;;;;;4984806;28;20284;-80
2022/09/19 15:26:28;;;;;;;8.13;2.15;;;;;;;;;;4966731;28;20233;-80
2022/09/19 15:29:09;;;;;;;6.00;2.03;;;;;;;;;;4965623;28;20222;-80
2022/09/19 15:31:37;;;;;;;6.83;1.83;;;;;;;;;;4984307;28;20225;-78
2022/09/19 15:34:19;;;;;;;8.33;2.10;;;;;;;;;;4962769;28;20244;-81
2022/09/19 15:36:47;;;;;;;7.03;2.30;;;;;;;;;;4962441;28;20221;-81
2022/09/19 15:39:15;;;;;;;6.40;1.67;;;;;;;;;;4963888;28;20711;-81
2022/09/19 15:41:40;;;;;;;4.30;1.70;;;;;;;;;;4966723;28;20236;-82
2022/09/19 15:44:07;;;;;;;4.17;1.67;;;;;;;;;;4962052;28;20264;-80
2022/09/19 15:46:51;;;;;;;7.30;2.23;;;;;;;;;;4968880;28;20217;-81
2022/09/19 15:49:30;;;;;;;5.13;2.10;;;;;;;;;;4961518;28;20277;-81
2022/09/19 15:52:00;;;;;;;7.77;2.40;;;;;;;;;;4993846;28;20236;-81
2022/09/19 15:54:30;;;;;;;6.30;2.33;;;;;;;;;;4977869;28;20230;-83
2022/09/19 15:56:58;;;;;;;8.47;2.97;;;;;;;;;;4980917;28;20260;-82
2022/09/19 15:59:38;;;;;;;12.60;5.27;;;;;;;;;;4987859;28;20225;-82
2022/09/19 16:02:13;;;;;;;12.23;3.70;;;;;;;;;;4964647;28;20244;-80
2022/09/19 16:04:43;;;;;;;8.57;2.33;;;;;;;;;;4967700;28;20243;-82
2022/09/19 16:10:14;;;;;;;11.85;2.70;;;;;;;;;;4963190;28;20241;-80
2022/09/19 16:12:40;;;;;;;10.87;2.47;;;;;;;;;;4979968;28;20244;-82